Portada
METAR-TAF:

METAR-TAF

Aeroports :

Aeroport Internacional Diori Hamani

Niamey, Níger

latitud: 13-29N, longitud: 002-10E, altitud: 223 m

Observació

L'informe es va fer fa 31 minuts, a les 16:00 UTC
Vent 7 kt del Est, variant entre Nord-Est i Est/Sud-Est
Temperatura 34°C
Humitat 9%
Pressió 1010 hPa
Visibilitat 10 km o més
sense núvols per sota de 1500 mi sense presència de cumulonimbus.

METAR: DRRN 071600Z 08007KT 050V120 CAVOK 34/M03 Q1010 NOSIG

Hora: 17:31 (16:31 UTC)

Pronòstic

L'informe es va fer fa 5 hores i 31 minuts, a les 11:00 UTC
Pronòstic vàlid del 07 a les 12 UTC al 08 a les 18 UTC
Vent 10 kt del Est
Visibilitat: 8000 m
Temporalment
l' 07 a les 17 UTC al 07 a les 19 UTC
Visibilitat: 4000 m
Pols estès
Temporalment
l' 08 a les 06 UTC al 08 a les 09 UTC
Visibilitat: 4000 m
Pols estès

TAF: DRRN 071100Z 0712/0818 08010KT 8000 NSC TEMPO 0717/0719 4000 DU TEMPO 0806/0809 4000 DU

Observacions i pronòstics meteorològics de més de 4000 aeroports (METAR i TAF).

Les estacions disponibles són els punts grocs i vermells al mapa.

Posi el ratolí al punt desitjat per veure el nom de l'estació.

Feu clic per veure les observacions i els pronòstics meteorològics.

Per canviar el mapa: feu clic els botons verds amb una creu de color negre per apropar; al botó verd amb un guió per allunyar la imatge; o en les fletxes verdes per a mapes adjacents.


METAR-TAF: